createdAt,value
2023-05-06T00:03:00.333Z,5.88
2023-05-06T00:05:47.666Z,5.87
2023-05-06T00:08:34.274Z,5.89
2023-05-06T00:11:21.092Z,5.90
2023-05-06T00:14:07.339Z,5.91
2023-05-06T00:16:54.446Z,5.93
2023-05-06T00:19:40.803Z,5.95
2023-05-06T00:22:27.283Z,5.96
2023-05-06T00:25:13.918Z,5.96
2023-05-06T00:28:00.956Z,5.97
2023-05-06T00:30:47.495Z,5.97
2023-05-06T00:33:34.145Z,5.94
2023-05-06T00:36:20.607Z,5.96
2023-05-06T00:39:07.200Z,6.02
2023-05-06T00:41:54.633Z,6.02
2023-05-06T00:44:41.325Z,6.02
2023-05-06T00:47:27.966Z,6.04
2023-05-06T00:50:14.743Z,6.01
2023-05-06T00:53:04.160Z,6.06
2023-05-06T00:55:51.807Z,6.08
2023-05-06T00:58:38.964Z,6.12
2023-05-06T01:01:27.226Z,6.13
2023-05-06T01:04:13.900Z,6.14
2023-05-06T01:07:09.665Z,6.19
2023-05-06T01:10:06.894Z,6.21
2023-05-06T01:13:05.748Z,6.21
2023-05-06T01:15:54.867Z,6.22
2023-05-06T01:18:44.440Z,6.22
2023-05-06T01:21:35.004Z,6.23
2023-05-06T01:24:21.801Z,6.25
2023-05-06T01:27:10.521Z,6.27
2023-05-06T01:29:59.287Z,6.27
2023-05-06T01:33:19.069Z,6.29
2023-05-06T01:36:37.647Z,6.30
2023-05-06T01:39:31.113Z,6.32
2023-05-06T01:42:18.308Z,6.34
2023-05-06T01:45:07.109Z,6.35
2023-05-06T01:47:54.144Z,6.36
2023-05-06T01:50:41.740Z,6.38
2023-05-06T01:53:28.005Z,6.41
2023-05-06T01:56:14.589Z,6.43
2023-05-06T01:59:01.072Z,6.46
2023-05-06T02:01:47.536Z,6.47
2023-05-06T02:04:34.194Z,6.49
2023-05-06T02:07:21.182Z,6.52
2023-05-06T02:10:08.990Z,6.54
2023-05-06T02:12:57.675Z,6.58
2023-05-06T02:15:44.588Z,6.60
2023-05-06T02:18:35.425Z,6.62
2023-05-06T02:21:21.982Z,6.65
2023-05-06T02:24:08.482Z,6.70
2023-05-06T02:26:54.739Z,6.73
2023-05-06T02:29:41.075Z,6.76
2023-05-06T02:32:27.773Z,6.79
2023-05-06T02:35:14.501Z,6.81
2023-05-06T02:38:03.358Z,6.83
2023-05-06T02:40:50.158Z,6.86
2023-05-06T02:43:36.804Z,6.88
2023-05-06T02:46:25.013Z,6.87
2023-05-06T02:49:12.052Z,6.92
2023-05-06T02:51:58.984Z,6.92
2023-05-06T02:54:45.358Z,6.91
2023-05-06T02:57:31.916Z,6.91
2023-05-06T03:00:19.072Z,6.91
2023-05-06T03:03:05.767Z,6.90
2023-05-06T03:05:52.225Z,6.90
2023-05-06T03:08:39.314Z,6.91
2023-05-06T03:11:26.919Z,6.90
2023-05-06T03:14:13.672Z,6.89
2023-05-06T03:17:00.476Z,6.89
2023-05-06T03:19:46.803Z,6.89
2023-05-06T03:22:33.598Z,6.89
2023-05-06T03:25:20.189Z,6.90
2023-05-06T03:28:07.176Z,6.89
2023-05-06T03:30:53.903Z,6.89
2023-05-06T03:33:41.067Z,6.89
2023-05-06T03:36:29.615Z,6.91
2023-05-06T03:39:15.982Z,6.86
2023-05-06T03:42:02.679Z,6.92
2023-05-06T03:44:49.574Z,6.93
2023-05-06T03:47:37.152Z,6.93
2023-05-06T03:50:23.906Z,6.95
2023-05-06T03:53:11.896Z,6.96
2023-05-06T03:55:59.224Z,6.98
2023-05-06T03:58:46.321Z,7.01
2023-05-06T04:01:33.664Z,7.03
2023-05-06T04:04:20.240Z,7.05
2023-05-06T04:07:06.752Z,7.07
2023-05-06T04:09:53.189Z,7.12
2023-05-06T04:12:40.358Z,7.17
2023-05-06T04:15:26.764Z,7.18
2023-05-06T04:18:18.960Z,7.24
2023-05-06T04:21:12.237Z,7.22
2023-05-06T04:23:59.690Z,7.22
2023-05-06T04:26:52.023Z,7.25
2023-05-06T04:29:39.128Z,7.27
2023-05-06T04:32:25.717Z,7.28
2023-05-06T04:35:13.583Z,7.30
2023-05-06T04:38:00.174Z,7.29
2023-05-06T04:40:50.103Z,7.28
2023-05-06T04:43:36.811Z,7.30
2023-05-06T04:46:28.158Z,7.35
2023-05-06T04:49:14.739Z,7.37
2023-05-06T04:52:01.978Z,7.45
2023-05-06T04:54:48.585Z,7.49
2023-05-06T04:57:35.648Z,7.53
2023-05-06T05:00:22.932Z,7.57
2023-05-06T05:03:09.838Z,7.61
2023-05-06T05:05:57.900Z,7.63
2023-05-06T05:08:46.330Z,7.67
2023-05-06T05:11:33.149Z,7.71
2023-05-06T05:14:19.736Z,7.73
2023-05-06T05:17:06.614Z,7.74
2023-05-06T05:19:53.951Z,7.69
2023-05-06T05:22:40.980Z,7.80
2023-05-06T05:25:27.548Z,7.81
2023-05-06T05:28:14.115Z,7.84
2023-05-06T05:31:04.261Z,7.89
2023-05-06T05:33:52.882Z,7.90
2023-05-06T05:36:41.431Z,7.92
2023-05-06T05:39:29.016Z,7.95
2023-05-06T05:42:17.173Z,7.99
2023-05-06T05:45:04.370Z,8.01
2023-05-06T05:47:51.054Z,8.05
2023-05-06T05:50:38.024Z,8.08
2023-05-06T05:53:25.128Z,8.10
2023-05-06T05:56:11.881Z,8.15
2023-05-06T05:58:58.953Z,8.18
2023-05-06T06:01:45.606Z,8.20
2023-05-06T06:04:32.185Z,8.23
2023-05-06T06:07:19.222Z,8.26
2023-05-06T06:10:07.529Z,8.26
2023-05-06T06:12:54.342Z,8.31
2023-05-06T06:15:42.519Z,8.40
2023-05-06T06:18:29.234Z,8.44
2023-05-06T06:21:15.937Z,8.47
2023-05-06T06:24:02.520Z,8.50
2023-05-06T06:26:49.777Z,8.52
2023-05-06T06:29:36.151Z,8.55
2023-05-06T06:32:22.586Z,8.54
2023-05-06T06:35:09.275Z,8.52
2023-05-06T06:37:56.205Z,8.49
2023-05-06T06:40:42.690Z,8.46
2023-05-06T06:43:29.577Z,8.42
2023-05-06T06:46:21.537Z,8.41
2023-05-06T06:49:08.251Z,8.32
2023-05-06T06:51:57.464Z,8.32
2023-05-06T06:54:44.027Z,8.31
2023-05-06T06:57:30.693Z,8.32
2023-05-06T07:00:17.324Z,8.30
2023-05-06T07:03:03.890Z,8.29
2023-05-06T07:05:50.544Z,8.33
2023-05-06T07:08:37.095Z,8.31
2023-05-06T07:11:23.928Z,8.28
2023-05-06T07:14:11.711Z,8.27
2023-05-06T07:16:58.095Z,8.28
2023-05-06T07:19:44.374Z,8.28
2023-05-06T07:22:31.036Z,8.32
2023-05-06T07:25:17.634Z,8.33
2023-05-06T07:28:04.405Z,8.36
2023-05-06T07:30:52.112Z,8.31
2023-05-06T07:33:38.602Z,8.28
2023-05-06T07:36:27.035Z,8.21
2023-05-06T07:39:14.085Z,8.15
2023-05-06T07:42:01.908Z,8.10
2023-05-06T07:44:48.307Z,8.05
2023-05-06T07:47:35.662Z,7.98
2023-05-06T07:50:22.565Z,7.92
2023-05-06T07:53:09.189Z,7.83
2023-05-06T07:56:02.052Z,7.73
2023-05-06T07:58:49.441Z,7.65
2023-05-06T08:01:36.172Z,7.64
2023-05-06T08:04:23.162Z,7.64
2023-05-06T08:07:10.617Z,7.66
2023-05-06T08:09:57.166Z,7.68
2023-05-06T08:12:43.737Z,7.73
2023-05-06T08:15:30.307Z,7.84
2023-05-06T08:18:22.324Z,7.87
2023-05-06T08:21:09.797Z,7.82
2023-05-06T08:23:56.400Z,7.80
2023-05-06T08:26:42.733Z,7.82
2023-05-06T08:29:29.255Z,7.86
2023-05-06T08:32:15.835Z,7.89
2023-05-06T08:35:02.404Z,7.91
2023-05-06T08:37:49.011Z,7.94
2023-05-06T08:40:44.640Z,7.92
2023-05-06T08:43:33.623Z,7.92
2023-05-06T08:46:20.160Z,7.90
2023-05-06T08:49:06.556Z,7.89
2023-05-06T08:51:53.112Z,7.85
2023-05-06T08:54:41.463Z,7.79
2023-05-06T08:57:30.578Z,7.72
2023-05-06T09:00:17.588Z,7.70
2023-05-06T09:03:04.072Z,7.64
2023-05-06T09:05:50.893Z,7.65
2023-05-06T09:08:37.429Z,7.65
2023-05-06T09:11:26.477Z,7.68
2023-05-06T09:14:17.764Z,7.69
2023-05-06T09:17:04.263Z,7.68
2023-05-06T09:19:57.216Z,7.74
2023-05-06T09:22:43.687Z,7.81
2023-05-06T09:25:30.494Z,7.90
2023-05-06T09:28:16.978Z,7.93
2023-05-06T09:31:03.849Z,7.95
2023-05-06T09:33:51.186Z,8.01
2023-05-06T09:36:38.016Z,8.05
2023-05-06T09:39:27.784Z,8.10
2023-05-06T09:42:14.482Z,8.08
2023-05-06T09:45:07.539Z,8.02
2023-05-06T09:47:54.902Z,7.98
2023-05-06T09:50:43.670Z,7.90
2023-05-06T09:53:32.749Z,7.84
2023-05-06T09:56:21.521Z,7.82
2023-05-06T09:59:08.366Z,7.82
2023-05-06T10:01:55.615Z,7.82
2023-05-06T10:04:43.076Z,7.88
2023-05-06T10:07:30.698Z,7.94
2023-05-06T10:10:18.215Z,7.97
2023-05-06T10:13:04.640Z,8.00
2023-05-06T10:15:52.103Z,8.04
2023-05-06T10:18:39.918Z,8.07
2023-05-06T10:21:32.423Z,8.10
2023-05-06T10:24:26.280Z,8.18
2023-05-06T10:27:14.102Z,8.22
2023-05-06T10:30:01.126Z,8.39
2023-05-06T10:32:48.253Z,8.50
2023-05-06T10:35:44.289Z,8.55
2023-05-06T10:38:35.890Z,8.59
2023-05-06T10:41:24.117Z,8.62
2023-05-06T10:44:10.900Z,8.63
2023-05-06T10:47:00.575Z,8.59
2023-05-06T10:50:20.055Z,8.54
2023-05-06T10:53:06.596Z,8.57
2023-05-06T10:56:09.057Z,8.63
2023-05-06T10:58:56.729Z,8.70
2023-05-06T11:01:44.521Z,8.67
2023-05-06T11:04:31.675Z,8.60
2023-05-06T11:07:23.341Z,8.52
2023-05-06T11:10:12.037Z,8.52
2023-05-06T11:12:59.086Z,8.51
2023-05-06T11:15:50.864Z,8.52
2023-05-06T11:18:40.102Z,8.56
2023-05-06T11:21:32.951Z,8.60
2023-05-06T11:24:43.901Z,8.60
2023-05-06T11:27:30.845Z,8.66
2023-05-06T11:30:17.429Z,8.69
2023-05-06T11:33:05.737Z,8.72
2023-05-06T11:35:53.224Z,8.66
2023-05-06T11:38:51.469Z,8.67
2023-05-06T11:41:41.398Z,8.71
2023-05-06T11:44:30.899Z,8.73
2023-05-06T11:47:17.166Z,8.69
2023-05-06T11:50:07.486Z,8.66
2023-05-06T11:52:54.074Z,8.65
2023-05-06T11:55:41.600Z,8.66
2023-05-06T11:58:29.327Z,8.67
2023-05-06T12:01:15.581Z,8.69
2023-05-06T12:04:02.328Z,8.72
2023-05-06T12:06:50.178Z,8.74
2023-05-06T12:09:45.699Z,8.74
2023-05-06T12:12:33.436Z,8.80
2023-05-06T12:15:20.287Z,8.86
2023-05-06T12:18:07.153Z,8.84
2023-05-06T12:20:54.876Z,8.77
2023-05-06T12:23:52.562Z,8.84
2023-05-06T12:26:44.472Z,8.86
2023-05-06T12:29:32.438Z,8.87
2023-05-06T12:32:18.858Z,8.83
2023-05-06T12:35:07.504Z,8.92
2023-05-06T12:37:54.428Z,8.94
2023-05-06T12:40:42.235Z,9.00
2023-05-06T12:43:33.218Z,9.05
2023-05-06T12:46:19.970Z,9.05
2023-05-06T12:49:06.667Z,9.07
2023-05-06T12:52:06.941Z,9.07
2023-05-06T12:54:53.377Z,9.07
2023-05-06T12:57:39.668Z,9.11
2023-05-06T13:00:25.732Z,9.16
2023-05-06T13:03:15.310Z,9.17
2023-05-06T13:06:01.970Z,9.17
2023-05-06T13:08:48.151Z,9.19
2023-05-06T13:11:35.372Z,9.23
2023-05-06T13:14:22.654Z,9.30
2023-05-06T13:17:09.435Z,9.36
2023-05-06T13:19:57.184Z,9.40
2023-05-06T13:22:54.337Z,9.48
2023-05-06T13:25:55.873Z,9.51
2023-05-06T13:28:47.631Z,9.54
2023-05-06T13:31:34.980Z,9.63
2023-05-06T13:34:21.808Z,9.75
2023-05-06T13:37:08.084Z,9.81
2023-05-06T13:39:54.512Z,9.83
2023-05-06T13:42:41.127Z,9.83
2023-05-06T13:45:27.509Z,9.81
2023-05-06T13:48:14.512Z,9.77
2023-05-06T13:51:01.083Z,9.75
2023-05-06T13:53:47.979Z,9.73
2023-05-06T13:56:35.051Z,9.70
2023-05-06T13:59:21.931Z,9.77
2023-05-06T14:02:09.807Z,9.86
2023-05-06T14:04:56.660Z,10.04
2023-05-06T14:07:43.198Z,10.20
2023-05-06T14:10:29.810Z,10.29
2023-05-06T14:13:16.170Z,10.31
2023-05-06T14:16:02.913Z,10.37
2023-05-06T14:18:49.255Z,10.35
2023-05-06T14:21:35.825Z,10.32
2023-05-06T14:24:22.165Z,10.26
2023-05-06T14:27:08.708Z,10.20
2023-05-06T14:29:55.134Z,10.15
2023-05-06T14:32:41.589Z,10.10
2023-05-06T14:35:28.131Z,10.06
2023-05-06T14:38:14.747Z,9.97
2023-05-06T14:41:01.154Z,9.90
2023-05-06T14:43:48.043Z,9.85
2023-05-06T14:46:34.714Z,9.80
2023-05-06T14:49:21.260Z,9.74
2023-05-06T14:52:07.816Z,9.72
2023-05-06T14:54:54.436Z,9.70
2023-05-06T14:57:40.777Z,9.71
2023-05-06T15:00:27.804Z,9.79
2023-05-06T15:03:14.416Z,9.91
2023-05-06T15:06:00.928Z,9.90
2023-05-06T15:08:47.622Z,9.87
2023-05-06T15:11:34.053Z,9.86
2023-05-06T15:14:20.733Z,9.83
2023-05-06T15:17:07.588Z,9.83
2023-05-06T15:19:54.500Z,9.86
2023-05-06T15:22:40.963Z,9.87
2023-05-06T15:25:34.813Z,9.86
2023-05-06T15:28:24.237Z,9.81
2023-05-06T15:31:11.116Z,9.70
2023-05-06T15:34:00.356Z,9.63
2023-05-06T15:36:52.762Z,9.57
2023-05-06T15:39:39.280Z,9.47
2023-05-06T15:42:25.872Z,9.40
2023-05-06T15:45:12.664Z,9.32
2023-05-06T15:47:59.044Z,9.28
2023-05-06T15:50:45.867Z,9.22
2023-05-06T15:53:32.320Z,9.18
2023-05-06T15:56:19.333Z,9.13
2023-05-06T15:59:08.119Z,9.10
2023-05-06T16:04:44.972Z,9.09
2023-05-06T16:07:32.257Z,9.06
2023-05-06T16:10:18.634Z,9.04
2023-05-06T16:13:05.301Z,9.04
2023-05-06T16:15:52.725Z,9.01
2023-05-06T16:18:39.169Z,9.00
2023-05-06T16:21:25.347Z,8.97
2023-05-06T16:24:11.596Z,8.98
2023-05-06T16:26:58.034Z,8.96
2023-05-06T16:29:44.683Z,9.03
2023-05-06T16:32:31.490Z,9.09
2023-05-06T16:35:18.385Z,9.05
2023-05-06T16:38:04.966Z,9.07
2023-05-06T16:40:51.663Z,9.04
2023-05-06T16:43:38.125Z,9.00
2023-05-06T16:46:24.792Z,8.97
2023-05-06T16:49:11.645Z,8.99
2023-05-06T16:51:58.437Z,9.02
2023-05-06T16:54:45.090Z,9.04
2023-05-06T16:57:31.461Z,9.03
2023-05-06T17:00:18.234Z,8.99
2023-05-06T17:03:04.943Z,8.96
2023-05-06T17:05:51.636Z,8.93
2023-05-06T17:08:37.840Z,8.90
2023-05-06T17:11:24.741Z,8.93
2023-05-06T17:14:11.630Z,8.95
2023-05-06T17:17:02.220Z,8.96
2023-05-06T17:19:48.665Z,8.90
2023-05-06T17:22:35.844Z,8.91
2023-05-06T17:25:23.350Z,8.92
2023-05-06T17:28:09.538Z,8.93
2023-05-06T17:30:56.194Z,8.90
2023-05-06T17:33:44.232Z,8.87
2023-05-06T17:36:31.321Z,8.82
2023-05-06T17:39:17.788Z,8.79
2023-05-06T17:42:04.274Z,8.78
2023-05-06T17:44:50.562Z,8.75
2023-05-06T17:47:37.003Z,8.71
2023-05-06T17:50:23.823Z,8.65
2023-05-06T17:53:10.610Z,8.59
2023-05-06T17:55:57.039Z,8.56
2023-05-06T17:58:43.522Z,8.52
2023-05-06T18:01:29.774Z,8.48
2023-05-06T18:04:16.348Z,8.46
2023-05-06T18:07:02.893Z,8.45
2023-05-06T18:09:52.055Z,8.43
2023-05-06T18:12:38.718Z,8.40
2023-05-06T18:15:25.726Z,8.39
2023-05-06T18:18:12.419Z,8.38
2023-05-06T18:20:58.707Z,8.38
2023-05-06T18:23:45.278Z,8.38
2023-05-06T18:26:43.331Z,8.36
2023-05-06T18:29:33.237Z,8.32
2023-05-06T18:32:20.006Z,8.29
2023-05-06T18:35:06.891Z,8.27
2023-05-06T18:37:53.583Z,8.25
2023-05-06T18:40:39.804Z,8.24
2023-05-06T18:43:26.526Z,8.25
2023-05-06T18:46:12.718Z,8.26
2023-05-06T18:49:00.828Z,8.29
2023-05-06T18:51:47.135Z,8.29
2023-05-06T18:54:33.742Z,8.27
2023-05-06T18:57:20.356Z,8.23
2023-05-06T19:00:08.909Z,8.23
2023-05-06T19:02:55.463Z,8.25
2023-05-06T19:05:41.974Z,8.26
2023-05-06T19:08:29.476Z,8.22
2023-05-06T19:11:18.215Z,8.30
2023-05-06T19:14:04.661Z,8.31
2023-05-06T19:16:51.498Z,8.32
2023-05-06T19:19:37.870Z,8.34
2023-05-06T19:22:24.197Z,8.34
2023-05-06T19:25:11.200Z,8.33
2023-05-06T19:27:58.456Z,8.30
2023-05-06T19:30:45.663Z,8.27
2023-05-06T19:33:32.439Z,8.24
2023-05-06T19:36:18.757Z,8.20
2023-05-06T19:39:05.781Z,8.18
2023-05-06T19:41:53.900Z,8.19
2023-05-06T19:44:42.765Z,8.21
2023-05-06T19:47:29.702Z,8.21
2023-05-06T19:50:16.266Z,8.18
2023-05-06T19:53:03.466Z,8.15
2023-05-06T19:55:50.104Z,8.09
2023-05-06T19:58:36.600Z,8.02
2023-05-06T20:01:24.396Z,7.97
2023-05-06T20:04:10.997Z,7.94
2023-05-06T20:06:57.940Z,7.92
2023-05-06T20:09:44.604Z,7.90
2023-05-06T20:12:30.997Z,7.91
2023-05-06T20:15:17.625Z,7.90
2023-05-06T20:18:04.689Z,7.89
2023-05-06T20:20:51.276Z,7.90
2023-05-06T20:23:37.884Z,7.92
2023-05-06T20:26:25.030Z,7.91
2023-05-06T20:29:11.490Z,7.89
2023-05-06T20:31:58.887Z,7.85
2023-05-06T20:34:45.558Z,7.85
2023-05-06T20:37:35.325Z,7.86
2023-05-06T20:40:21.904Z,7.86
2023-05-06T20:43:08.760Z,7.83
2023-05-06T20:45:55.982Z,7.80
2023-05-06T20:48:43.154Z,7.78
2023-05-06T20:51:29.521Z,7.73
2023-05-06T20:54:16.238Z,7.70
2023-05-06T20:57:02.740Z,7.71
2023-05-06T20:59:52.781Z,7.73
2023-05-06T21:02:41.263Z,7.72
2023-05-06T21:05:28.297Z,7.68
2023-05-06T21:08:15.069Z,7.63
2023-05-06T21:11:01.568Z,7.58
2023-05-06T21:13:49.512Z,7.54
2023-05-06T21:16:39.797Z,7.52
2023-05-06T21:19:26.856Z,7.54
2023-05-06T21:22:13.300Z,7.58
2023-05-06T21:25:00.055Z,7.59
2023-05-06T21:27:47.054Z,7.59
2023-05-06T21:30:35.263Z,7.54
2023-05-06T21:33:21.640Z,7.50
2023-05-06T21:36:08.242Z,7.49
2023-05-06T21:39:06.574Z,7.52
2023-05-06T21:41:53.120Z,7.53
2023-05-06T21:44:39.565Z,7.50
2023-05-06T21:47:25.963Z,7.48
2023-05-06T21:50:12.628Z,7.44
2023-05-06T21:52:58.981Z,7.41
2023-05-06T21:55:45.594Z,7.44
2023-05-06T21:58:32.463Z,7.44
2023-05-06T22:01:19.209Z,7.43
2023-05-06T22:04:11.503Z,7.45
2023-05-06T22:06:58.487Z,7.49
2023-05-06T22:09:45.405Z,7.49
2023-05-06T22:12:32.541Z,7.44
2023-05-06T22:15:19.522Z,7.42
2023-05-06T22:18:07.261Z,7.42
2023-05-06T22:20:56.799Z,7.41
2023-05-06T22:23:43.368Z,7.43
2023-05-06T22:26:32.880Z,7.46
2023-05-06T22:29:19.148Z,7.47
2023-05-06T22:32:06.409Z,7.49
2023-05-06T22:34:52.776Z,7.48
2023-05-06T22:37:39.182Z,7.48
2023-05-06T22:40:27.766Z,7.47
2023-05-06T22:43:13.959Z,7.48
2023-05-06T22:46:00.751Z,7.49
2023-05-06T22:48:47.615Z,7.47
2023-05-06T22:51:35.081Z,7.42
2023-05-06T22:54:22.340Z,7.36
2023-05-06T22:57:09.003Z,7.31
2023-05-06T22:59:55.497Z,7.29
2023-05-06T23:02:41.774Z,7.28
2023-05-06T23:05:28.389Z,7.26
2023-05-06T23:08:15.494Z,7.24
2023-05-06T23:11:02.068Z,7.18
2023-05-06T23:13:48.712Z,7.06
2023-05-06T23:16:35.241Z,7.04
2023-05-06T23:19:21.872Z,6.97
2023-05-06T23:22:08.402Z,6.95
2023-05-06T23:24:55.874Z,6.89
2023-05-06T23:27:43.325Z,6.82
2023-05-06T23:30:30.310Z,6.77
2023-05-06T23:33:17.223Z,6.68
2023-05-06T23:36:03.871Z,6.57
2023-05-06T23:38:50.131Z,6.51
2023-05-06T23:41:36.552Z,6.49
2023-05-06T23:44:23.090Z,6.44
2023-05-06T23:47:09.354Z,6.35
2023-05-06T23:49:55.795Z,6.26
2023-05-06T23:52:42.272Z,6.16
2023-05-06T23:55:29.301Z,6.05
2023-05-06T23:58:15.733Z,5.99
